Collins Bay Airport


Codes: CYKC/YKC
Name: Collins Bay Airport
City: Collins Bay
Country: Canada
Elevation: 1341 ft.
Wikipedia:

Photos at Collins Bay Airport


   Photos courtesy of SpottingLog. You can add your own sightings and photos by signing up for a free trial today.



No photos found.

Weather at Collins Bay Airport


Time (UTC)DescriptionTempratureWindCloud coverageVisibilityPressureHumidity
15-Apr-2024 18:00Overcast Clouds1°C7 mph, SE98%9539m1019hPa92%
15-Apr-2024 21:00Overcast Clouds2°C7 mph, SE100%10000m1019hPa88%
16-Apr-2024 00:00Light Snow2°C7 mph, NE100%10000m1020hPa86%
16-Apr-2024 03:00Light Rain1°C7 mph, E100%10000m1021hPa93%
16-Apr-2024 06:00Light Rain1°C9 mph, E100%1213m1021hPa98%
16-Apr-2024 09:00Light Snow0°C11 mph, E100%671m1022hPa98%
16-Apr-2024 12:00Snow-0°C13 mph, E100%1845m1022hPa94%
16-Apr-2024 15:00Light Snow0°C11 mph, E100%10000m1022hPa92%
16-Apr-2024 18:00Light Snow1°C13 mph, E100%10000m1021hPa88%
16-Apr-2024 21:00Light Snow1°C16 mph, NE100%75m1022hPa98%
17-Apr-2024 00:00Snow-0°C18 mph, NE100%189m1023hPa96%
17-Apr-2024 03:00Light Snow-2°C16 mph, NE100%168m1024hPa96%
17-Apr-2024 06:00Light Snow-5°C20 mph, NE100%155m1026hPa94%
17-Apr-2024 09:00Light Snow-7°C20 mph, NE100%439m1028hPa91%
17-Apr-2024 12:00Light Snow-9°C20 mph, NE100%179m1030hPa92%
17-Apr-2024 15:00Light Snow-9°C20 mph, NE100%10000m1032hPa82%
17-Apr-2024 18:00Overcast Clouds-7°C20 mph, NE100%10000m1033hPa72%
17-Apr-2024 21:00Overcast Clouds-5°C20 mph, NE99%10000m1034hPa73%
18-Apr-2024 00:00Overcast Clouds-7°C18 mph, N86%10000m1036hPa68%
18-Apr-2024 03:00Clear Sky-11°C13 mph, N8%10000m1038hPa72%
18-Apr-2024 06:00Clear Sky-13°C11 mph, N4%10000m1039hPa75%
18-Apr-2024 09:00Clear Sky-14°C11 mph, N2%10000m1039hPa78%
18-Apr-2024 12:00Few Clouds-15°C9 mph, N11%10000m1039hPa81%
18-Apr-2024 15:00Overcast Clouds-10°C11 mph, N87%10000m1039hPa62%
18-Apr-2024 18:00Overcast Clouds-6°C13 mph, N94%10000m1037hPa56%
18-Apr-2024 21:00Overcast Clouds-3°C13 mph, N100%10000m1035hPa55%
19-Apr-2024 00:00Overcast Clouds-2°C9 mph, N100%10000m1034hPa66%
19-Apr-2024 03:00Broken Clouds-7°C7 mph, NW65%10000m1034hPa86%
19-Apr-2024 06:00Scattered Clouds-7°C7 mph, NW39%10000m1033hPa91%
19-Apr-2024 09:00Clear Sky-8°C7 mph, NW5%10000m1033hPa89%
19-Apr-2024 12:00Clear Sky-8°C9 mph, NW10%10000m1032hPa87%
19-Apr-2024 15:00Overcast Clouds-3°C11 mph, NW87%10000m1031hPa80%
19-Apr-2024 18:00Overcast Clouds1°C9 mph, NW85%10000m1029hPa72%
19-Apr-2024 21:00Overcast Clouds2°C9 mph, NW92%10000m1028hPa71%
20-Apr-2024 00:00Overcast Clouds2°C9 mph, NW95%10000m1027hPa74%
20-Apr-2024 03:00Overcast Clouds-1°C4 mph, W100%10000m1026hPa88%
20-Apr-2024 06:00Overcast Clouds-2°C7 mph, W100%10000m1024hPa89%
20-Apr-2024 09:00Overcast Clouds-2°C7 mph, W100%10000m1022hPa88%
20-Apr-2024 12:00Overcast Clouds-2°C4 mph, W100%10000m1020hPa87%
20-Apr-2024 15:00Overcast Clouds2°C4 mph, W100%10000m1017hPa78%